Etusivu
METAR-TAF:

METAR-TAF

Lentoasemat :

Pohnpei, Mikronesia

Leveyspiiri: 06-59N, Pituuspiiri: 158-12E, korkeus merenpinnasta: 2 m

Tämänhetkinen sää

Tämä raportti tehtiin 48 minuuttia sitten, kello 00.50 UTC
Tuuli 10 kn idästä/koillisesta
Lämpötila 31°C
Kosteus 71%
Ilmanpaine 1010 hPa
Näkyvyys: 24.1 km
Hajanaisia pilviä 1800 ft:n korkeudessa
Hajanaisia pilviä 13000 ft:n korkeudessa
Hajonneita pilviä 30000 ft:n korkeudessa

METAR: PTPN 230050Z 07010KT 15SM SCT018 SCT130 BKN300 31/25 A2983

Aika: 12:38 (01:38 UTC)

Sääennuste

Tämä raportti tehtiin 2 tuntia ja 1 minuuttia sitten, kello 23.37 UTC
Ennuste voimassa 23. päivästä klo 00 UTC - 23. päivään klo 24 UTC
Tuuli 6 kn idästä
Näkyvyys: 10 km
Muutamia pilviä 1800 ft:n korkeudessa
Hajanaisia pilviä 12000 ft:n korkeudessa
sadekuuroja näköpiirissä

TAF: PTPN 222337Z 2300/2324 09006KT P6SM VCSH FEW018 SCT120

Säähavainnot ja -ennusteet yli 4000 lentoasemalta (METAR- ja TAF-raportit).

Käytössä olevat sääasemat on merkitty karttaan keltaisilla ja punaisilla pisteillä.

Aseta hiiri pisteen päälle nähdäksesi sääaseman nimen.

Klikkaa sitten nähdäksesi säähavainnot ja -ennusteet.

Kartan vaihtaminen: klikkaa mustalla rastilla varustettuja vihreitä pisteitä, niin voit zoomata sisään; viivalla varustettua vihreää pistettä, niin voit zoomata ulos tai vihreitä nuolia, niin pääset viereisille kartoille.


METAR-TAF: